sensor_id;sensor_type;location;lat;lon;timestamp;temperature;humidity
4910;DHT22;2470;49.868;8.660;2022-08-24T00:02:24;23.80;53.80
4910;DHT22;2470;49.868;8.660;2022-08-24T00:04:50;23.70;54.30
4910;DHT22;2470;49.868;8.660;2022-08-24T00:07:17;23.70;53.80
4910;DHT22;2470;49.868;8.660;2022-08-24T00:09:44;23.70;53.60
4910;DHT22;2470;49.868;8.660;2022-08-24T00:12:10;23.70;53.20
4910;DHT22;2470;49.868;8.660;2022-08-24T00:14:35;23.60;53.10
4910;DHT22;2470;49.868;8.660;2022-08-24T00:17:02;23.60;53.20
4910;DHT22;2470;49.868;8.660;2022-08-24T00:19:28;23.60;53.40
4910;DHT22;2470;49.868;8.660;2022-08-24T00:21:54;23.60;53.40
4910;DHT22;2470;49.868;8.660;2022-08-24T00:24:19;23.60;54.10
4910;DHT22;2470;49.868;8.660;2022-08-24T00:26:45;23.60;53.70
4910;DHT22;2470;49.868;8.660;2022-08-24T00:29:14;23.60;53.70
4910;DHT22;2470;49.868;8.660;2022-08-24T00:31:40;23.50;53.50
4910;DHT22;2470;49.868;8.660;2022-08-24T00:34:06;23.60;53.60
4910;DHT22;2470;49.868;8.660;2022-08-24T00:36:32;23.60;53.50
4910;DHT22;2470;49.868;8.660;2022-08-24T00:38:58;23.60;53.70
4910;DHT22;2470;49.868;8.660;2022-08-24T00:41:23;23.50;53.70
4910;DHT22;2470;49.868;8.660;2022-08-24T00:43:52;23.50;53.80
4910;DHT22;2470;49.868;8.660;2022-08-24T00:46:40;23.50;53.60
4910;DHT22;2470;49.868;8.660;2022-08-24T00:49:12;23.50;53.80
4910;DHT22;2470;49.868;8.660;2022-08-24T00:51:48;23.50;53.80
4910;DHT22;2470;49.868;8.660;2022-08-24T00:54:16;23.50;53.90
4910;DHT22;2470;49.868;8.660;2022-08-24T00:56:46;23.40;53.90
4910;DHT22;2470;49.868;8.660;2022-08-24T00:59:30;23.50;54.10
4910;DHT22;2470;49.868;8.660;2022-08-24T01:01:57;23.40;54.40
4910;DHT22;2470;49.868;8.660;2022-08-24T01:04:38;23.40;54.40
4910;DHT22;2470;49.868;8.660;2022-08-24T01:07:04;23.30;54.40
4910;DHT22;2470;49.868;8.660;2022-08-24T01:09:30;23.30;54.40
4910;DHT22;2470;49.868;8.660;2022-08-24T01:11:56;23.30;54.50
4910;DHT22;2470;49.868;8.660;2022-08-24T01:14:23;23.20;54.30
4910;DHT22;2470;49.868;8.660;2022-08-24T01:16:48;23.20;54.30
4910;DHT22;2470;49.868;8.660;2022-08-24T01:19:49;23.20;54.30
4910;DHT22;2470;49.868;8.660;2022-08-24T01:22:28;23.10;54.40
4910;DHT22;2470;49.868;8.660;2022-08-24T01:24:59;23.10;54.40
4910;DHT22;2470;49.868;8.660;2022-08-24T01:27:25;23.00;54.40
4910;DHT22;2470;49.868;8.660;2022-08-24T01:29:52;23.00;54.60
4910;DHT22;2470;49.868;8.660;2022-08-24T01:32:22;23.00;54.70
4910;DHT22;2470;49.868;8.660;2022-08-24T01:34:47;22.90;54.70
4910;DHT22;2470;49.868;8.660;2022-08-24T01:37:14;22.90;54.80
4910;DHT22;2470;49.868;8.660;2022-08-24T01:39:42;22.90;55.00
4910;DHT22;2470;49.868;8.660;2022-08-24T01:42:08;22.90;55.20
4910;DHT22;2470;49.868;8.660;2022-08-24T01:44:36;22.80;55.20
4910;DHT22;2470;49.868;8.660;2022-08-24T01:47:04;22.80;55.30
4910;DHT22;2470;49.868;8.660;2022-08-24T01:49:32;22.80;55.40
4910;DHT22;2470;49.868;8.660;2022-08-24T01:51:59;22.70;55.40
4910;DHT22;2470;49.868;8.660;2022-08-24T01:54:25;22.70;55.50
4910;DHT22;2470;49.868;8.660;2022-08-24T01:56:50;22.60;55.50
4910;DHT22;2470;49.868;8.660;2022-08-24T01:59:16;22.60;55.50
4910;DHT22;2470;49.868;8.660;2022-08-24T02:01:47;22.60;55.70
4910;DHT22;2470;49.868;8.660;2022-08-24T02:04:13;22.60;55.60
4910;DHT22;2470;49.868;8.660;2022-08-24T02:06:39;22.40;55.30
4910;DHT22;2470;49.868;8.660;2022-08-24T02:09:05;22.50;55.40
4910;DHT22;2470;49.868;8.660;2022-08-24T02:11:31;22.60;55.40
4910;DHT22;2470;49.868;8.660;2022-08-24T02:13:57;22.50;55.50
4910;DHT22;2470;49.868;8.660;2022-08-24T02:16:23;22.50;55.40
4910;DHT22;2470;49.868;8.660;2022-08-24T02:18:48;22.50;55.40
4910;DHT22;2470;49.868;8.660;2022-08-24T02:21:14;22.50;55.30
4910;DHT22;2470;49.868;8.660;2022-08-24T02:23:41;22.50;55.40
4910;DHT22;2470;49.868;8.660;2022-08-24T02:26:09;22.40;55.30
4910;DHT22;2470;49.868;8.660;2022-08-24T02:28:36;22.40;55.20
4910;DHT22;2470;49.868;8.660;2022-08-24T02:31:03;22.40;55.20
4910;DHT22;2470;49.868;8.660;2022-08-24T02:33:30;22.40;55.20
4910;DHT22;2470;49.868;8.660;2022-08-24T02:35:56;22.40;56.00
4910;DHT22;2470;49.868;8.660;2022-08-24T02:38:22;22.40;55.30
4910;DHT22;2470;49.868;8.660;2022-08-24T02:40:48;22.40;55.20
4910;DHT22;2470;49.868;8.660;2022-08-24T02:43:14;22.40;55.20
4910;DHT22;2470;49.868;8.660;2022-08-24T02:45:42;22.40;55.20
4910;DHT22;2470;49.868;8.660;2022-08-24T02:48:09;22.40;55.20
4910;DHT22;2470;49.868;8.660;2022-08-24T02:50:40;22.40;55.40
4910;DHT22;2470;49.868;8.660;2022-08-24T02:53:07;22.40;55.30
4910;DHT22;2470;49.868;8.660;2022-08-24T02:55:33;22.40;55.30
4910;DHT22;2470;49.868;8.660;2022-08-24T02:57:58;22.30;55.30
4910;DHT22;2470;49.868;8.660;2022-08-24T03:00:24;22.30;55.30
4910;DHT22;2470;49.868;8.660;2022-08-24T03:02:50;22.30;55.30
4910;DHT22;2470;49.868;8.660;2022-08-24T03:05:16;22.30;55.40
4910;DHT22;2470;49.868;8.660;2022-08-24T03:07:42;22.30;55.40
4910;DHT22;2470;49.868;8.660;2022-08-24T03:10:08;22.30;55.40
4910;DHT22;2470;49.868;8.660;2022-08-24T03:12:34;22.30;55.50
4910;DHT22;2470;49.868;8.660;2022-08-24T03:15:00;22.30;55.50
4910;DHT22;2470;49.868;8.660;2022-08-24T03:17:28;22.20;55.40
4910;DHT22;2470;49.868;8.660;2022-08-24T03:19:59;22.20;55.40
4910;DHT22;2470;49.868;8.660;2022-08-24T03:22:25;22.20;55.80
4910;DHT22;2470;49.868;8.660;2022-08-24T03:24:51;22.20;55.90
4910;DHT22;2470;49.868;8.660;2022-08-24T03:27:17;22.20;56.10
4910;DHT22;2470;49.868;8.660;2022-08-24T03:29:43;22.20;56.40
4910;DHT22;2470;49.868;8.660;2022-08-24T03:32:08;22.20;56.10
4910;DHT22;2470;49.868;8.660;2022-08-24T03:34:35;22.20;56.20
4910;DHT22;2470;49.868;8.660;2022-08-24T03:37:01;22.20;56.30
4910;DHT22;2470;49.868;8.660;2022-08-24T03:39:27;22.20;56.20
4910;DHT22;2470;49.868;8.660;2022-08-24T03:41:52;22.20;56.30
4910;DHT22;2470;49.868;8.660;2022-08-24T03:44:18;22.20;56.30
4910;DHT22;2470;49.868;8.660;2022-08-24T03:46:44;22.20;56.20
4910;DHT22;2470;49.868;8.660;2022-08-24T03:49:11;22.10;56.10
4910;DHT22;2470;49.868;8.660;2022-08-24T03:51:37;22.10;56.30
4910;DHT22;2470;49.868;8.660;2022-08-24T03:54:06;22.10;56.50
4910;DHT22;2470;49.868;8.660;2022-08-24T03:56:32;22.10;56.40
4910;DHT22;2470;49.868;8.660;2022-08-24T03:58:57;22.10;56.70
4910;DHT22;2470;49.868;8.660;2022-08-24T04:01:23;22.10;56.80
4910;DHT22;2470;49.868;8.660;2022-08-24T04:03:49;22.10;56.80
4910;DHT22;2470;49.868;8.660;2022-08-24T04:06:17;22.10;57.00
4910;DHT22;2470;49.868;8.660;2022-08-24T04:08:43;22.10;57.10
4910;DHT22;2470;49.868;8.660;2022-08-24T04:11:18;22.00;57.00
4910;DHT22;2470;49.868;8.660;2022-08-24T04:13:45;22.10;57.20
4910;DHT22;2470;49.868;8.660;2022-08-24T04:16:13;22.00;57.10
4910;DHT22;2470;49.868;8.660;2022-08-24T04:18:40;22.10;57.20
4910;DHT22;2470;49.868;8.660;2022-08-24T04:21:06;22.00;57.30
4910;DHT22;2470;49.868;8.660;2022-08-24T04:23:38;22.00;57.40
4910;DHT22;2470;49.868;8.660;2022-08-24T04:26:04;22.10;57.50
4910;DHT22;2470;49.868;8.660;2022-08-24T04:28:30;22.10;57.50
4910;DHT22;2470;49.868;8.660;2022-08-24T04:30:56;22.00;57.40
4910;DHT22;2470;49.868;8.660;2022-08-24T04:33:22;22.00;57.50
4910;DHT22;2470;49.868;8.660;2022-08-24T04:35:48;22.00;57.70
4910;DHT22;2470;49.868;8.660;2022-08-24T04:38:18;21.90;57.70
4910;DHT22;2470;49.868;8.660;2022-08-24T04:40:45;21.90;57.80
4910;DHT22;2470;49.868;8.660;2022-08-24T04:43:12;21.90;57.90
4910;DHT22;2470;49.868;8.660;2022-08-24T04:45:44;21.90;58.00
4910;DHT22;2470;49.868;8.660;2022-08-24T04:48:11;21.90;58.20
4910;DHT22;2470;49.868;8.660;2022-08-24T04:50:39;21.90;58.20
4910;DHT22;2470;49.868;8.660;2022-08-24T04:53:06;21.90;58.20
4910;DHT22;2470;49.868;8.660;2022-08-24T04:55:33;22.00;58.30
4910;DHT22;2470;49.868;8.660;2022-08-24T04:58:05;22.00;58.20
4910;DHT22;2470;49.868;8.660;2022-08-24T05:00:31;22.10;58.10
4910;DHT22;2470;49.868;8.660;2022-08-24T05:02:57;22.20;58.10
4910;DHT22;2470;49.868;8.660;2022-08-24T05:05:22;22.20;58.00
4910;DHT22;2470;49.868;8.660;2022-08-24T05:07:48;22.30;57.90
4910;DHT22;2470;49.868;8.660;2022-08-24T05:10:14;22.30;57.90
4910;DHT22;2470;49.868;8.660;2022-08-24T05:12:39;22.40;57.90
4910;DHT22;2470;49.868;8.660;2022-08-24T05:15:06;22.40;57.80
4910;DHT22;2470;49.868;8.660;2022-08-24T05:17:31;22.40;57.60
4910;DHT22;2470;49.868;8.660;2022-08-24T05:19:57;22.40;57.60
4910;DHT22;2470;49.868;8.660;2022-08-24T05:22:23;22.40;57.60
4910;DHT22;2470;49.868;8.660;2022-08-24T05:24:49;22.50;57.60
4910;DHT22;2470;49.868;8.660;2022-08-24T05:27:15;22.50;57.60
4910;DHT22;2470;49.868;8.660;2022-08-24T05:29:42;22.50;57.50
4910;DHT22;2470;49.868;8.660;2022-08-24T05:32:08;22.60;57.60
4910;DHT22;2470;49.868;8.660;2022-08-24T05:34:33;22.60;57.40
4910;DHT22;2470;49.868;8.660;2022-08-24T05:36:59;22.60;57.50
4910;DHT22;2470;49.868;8.660;2022-08-24T05:39:25;22.80;57.50
4910;DHT22;2470;49.868;8.660;2022-08-24T05:41:50;22.90;57.40
4910;DHT22;2470;49.868;8.660;2022-08-24T05:44:17;22.90;57.30
4910;DHT22;2470;49.868;8.660;2022-08-24T05:46:43;23.00;57.20
4910;DHT22;2470;49.868;8.660;2022-08-24T05:49:09;23.00;57.10
4910;DHT22;2470;49.868;8.660;2022-08-24T05:51:35;23.00;57.10
4910;DHT22;2470;49.868;8.660;2022-08-24T05:54:00;23.00;57.30
4910;DHT22;2470;49.868;8.660;2022-08-24T05:56:28;23.00;57.40
4910;DHT22;2470;49.868;8.660;2022-08-24T05:58:54;23.10;58.00
4910;DHT22;2470;49.868;8.660;2022-08-24T06:01:24;23.10;57.80
4910;DHT22;2470;49.868;8.660;2022-08-24T06:03:51;23.10;58.00
4910;DHT22;2470;49.868;8.660;2022-08-24T06:06:19;23.20;58.00
4910;DHT22;2470;49.868;8.660;2022-08-24T06:08:47;23.20;57.70
4910;DHT22;2470;49.868;8.660;2022-08-24T06:11:24;23.30;57.60
4910;DHT22;2470;49.868;8.660;2022-08-24T06:13:55;23.30;57.40
4910;DHT22;2470;49.868;8.660;2022-08-24T06:16:21;23.30;57.40
4910;DHT22;2470;49.868;8.660;2022-08-24T06:18:49;23.30;57.50
4910;DHT22;2470;49.868;8.660;2022-08-24T06:21:21;23.30;57.60
4910;DHT22;2470;49.868;8.660;2022-08-24T06:23:47;23.40;57.50
4910;DHT22;2470;49.868;8.660;2022-08-24T06:26:13;23.50;57.40
4910;DHT22;2470;49.868;8.660;2022-08-24T06:28:58;23.50;57.60
4910;DHT22;2470;49.868;8.660;2022-08-24T06:31:25;23.50;57.60
4910;DHT22;2470;49.868;8.660;2022-08-24T06:33:52;23.50;57.50
4910;DHT22;2470;49.868;8.660;2022-08-24T06:36:17;23.50;57.20
4910;DHT22;2470;49.868;8.660;2022-08-24T06:38:43;23.50;57.40
4910;DHT22;2470;49.868;8.660;2022-08-24T06:41:09;23.60;57.30
4910;DHT22;2470;49.868;8.660;2022-08-24T06:43:35;23.60;57.30
4910;DHT22;2470;49.868;8.660;2022-08-24T06:46:01;23.70;57.50
4910;DHT22;2470;49.868;8.660;2022-08-24T06:48:27;23.70;57.00
4910;DHT22;2470;49.868;8.660;2022-08-24T06:50:54;23.80;57.10
4910;DHT22;2470;49.868;8.660;2022-08-24T06:53:20;23.90;57.00
4910;DHT22;2470;49.868;8.660;2022-08-24T06:55:51;24.00;56.50
4910;DHT22;2470;49.868;8.660;2022-08-24T06:58:18;24.10;56.30
4910;DHT22;2470;49.868;8.660;2022-08-24T07:00:44;24.20;56.40
4910;DHT22;2470;49.868;8.660;2022-08-24T07:03:10;24.20;55.70
4910;DHT22;2470;49.868;8.660;2022-08-24T07:05:36;24.30;55.50
4910;DHT22;2470;49.868;8.660;2022-08-24T07:08:02;24.40;55.60
4910;DHT22;2470;49.868;8.660;2022-08-24T07:10:28;24.50;55.40
4910;DHT22;2470;49.868;8.660;2022-08-24T07:12:55;24.50;55.20
4910;DHT22;2470;49.868;8.660;2022-08-24T07:15:20;24.60;55.20
4910;DHT22;2470;49.868;8.660;2022-08-24T07:17:46;24.70;55.20
4910;DHT22;2470;49.868;8.660;2022-08-24T07:20:12;24.70;55.00
4910;DHT22;2470;49.868;8.660;2022-08-24T07:22:38;24.80;54.80
4910;DHT22;2470;49.868;8.660;2022-08-24T07:25:05;24.80;54.80
4910;DHT22;2470;49.868;8.660;2022-08-24T07:27:32;24.80;54.90
4910;DHT22;2470;49.868;8.660;2022-08-24T07:29:57;24.90;54.60
4910;DHT22;2470;49.868;8.660;2022-08-24T07:32:23;24.90;54.60
4910;DHT22;2470;49.868;8.660;2022-08-24T07:34:48;25.00;54.70
4910;DHT22;2470;49.868;8.660;2022-08-24T07:37:15;25.10;54.60
4910;DHT22;2470;49.868;8.660;2022-08-24T07:39:40;25.10;54.40
4910;DHT22;2470;49.868;8.660;2022-08-24T07:42:07;25.20;54.50
4910;DHT22;2470;49.868;8.660;2022-08-24T07:44:33;25.30;53.90
4910;DHT22;2470;49.868;8.660;2022-08-24T07:46:58;25.30;53.80
4910;DHT22;2470;49.868;8.660;2022-08-24T07:49:24;25.30;53.60
4910;DHT22;2470;49.868;8.660;2022-08-24T07:51:50;25.40;53.70
4910;DHT22;2470;49.868;8.660;2022-08-24T07:54:18;25.50;53.60
4910;DHT22;2470;49.868;8.660;2022-08-24T07:56:44;25.50;53.20
4910;DHT22;2470;49.868;8.660;2022-08-24T07:59:09;25.60;52.80
4910;DHT22;2470;49.868;8.660;2022-08-24T08:01:35;25.80;52.70
4910;DHT22;2470;49.868;8.660;2022-08-24T08:04:01;25.80;52.20
4910;DHT22;2470;49.868;8.660;2022-08-24T08:06:26;25.80;52.30
4910;DHT22;2470;49.868;8.660;2022-08-24T08:08:52;25.80;52.70
4910;DHT22;2470;49.868;8.660;2022-08-24T08:11:17;25.90;52.60
4910;DHT22;2470;49.868;8.660;2022-08-24T08:13:44;25.90;52.90
4910;DHT22;2470;49.868;8.660;2022-08-24T08:16:09;26.00;53.60
4910;DHT22;2470;49.868;8.660;2022-08-24T08:18:35;26.00;52.40
4910;DHT22;2470;49.868;8.660;2022-08-24T08:21:02;26.10;52.50
4910;DHT22;2470;49.868;8.660;2022-08-24T08:23:28;26.00;52.70
4910;DHT22;2470;49.868;8.660;2022-08-24T08:26:16;26.10;53.00
4910;DHT22;2470;49.868;8.660;2022-08-24T08:28:41;26.20;52.20
4910;DHT22;2470;49.868;8.660;2022-08-24T08:31:07;26.30;51.80
4910;DHT22;2470;49.868;8.660;2022-08-24T08:33:32;26.40;52.00
4910;DHT22;2470;49.868;8.660;2022-08-24T08:36:08;26.40;53.10
4910;DHT22;2470;49.868;8.660;2022-08-24T08:38:35;26.40;54.00
4910;DHT22;2470;49.868;8.660;2022-08-24T08:41:19;26.40;54.60
4910;DHT22;2470;49.868;8.660;2022-08-24T08:44:04;26.40;54.90
4910;DHT22;2470;49.868;8.660;2022-08-24T08:49:28;26.50;55.00
4910;DHT22;2470;49.868;8.660;2022-08-24T08:52:26;26.50;55.00
4910;DHT22;2470;49.868;8.660;2022-08-24T08:58:27;26.50;54.60
4910;DHT22;2470;49.868;8.660;2022-08-24T09:00:58;26.60;54.70
4910;DHT22;2470;49.868;8.660;2022-08-24T09:06:41;26.60;54.50
4910;DHT22;2470;49.868;8.660;2022-08-24T09:09:24;26.60;54.40
4910;DHT22;2470;49.868;8.660;2022-08-24T09:12:12;26.60;54.50
4910;DHT22;2470;49.868;8.660;2022-08-24T09:15:41;26.60;55.20
4910;DHT22;2470;49.868;8.660;2022-08-24T09:18:36;26.70;54.80
4910;DHT22;2470;49.868;8.660;2022-08-24T09:24:18;26.80;54.60
4910;DHT22;2470;49.868;8.660;2022-08-24T09:27:21;26.90;54.80
4910;DHT22;2470;49.868;8.660;2022-08-24T09:30:12;27.00;54.70
4910;DHT22;2470;49.868;8.660;2022-08-24T09:32:59;27.10;54.30
4910;DHT22;2470;49.868;8.660;2022-08-24T09:38:30;27.40;53.50
4910;DHT22;2470;49.868;8.660;2022-08-24T09:44:37;27.60;53.80
4910;DHT22;2470;49.868;8.660;2022-08-24T09:50:24;27.70;53.50
4910;DHT22;2470;49.868;8.660;2022-08-24T09:58:30;27.80;52.90
4910;DHT22;2470;49.868;8.660;2022-08-24T10:01:32;27.90;53.20
4910;DHT22;2470;49.868;8.660;2022-08-24T10:04:34;28.00;52.80
4910;DHT22;2470;49.868;8.660;2022-08-24T10:07:23;28.10;52.30
4910;DHT22;2470;49.868;8.660;2022-08-24T10:10:11;28.20;51.80
4910;DHT22;2470;49.868;8.660;2022-08-24T10:23:47;28.70;49.40
4910;DHT22;2470;49.868;8.660;2022-08-24T10:29:23;28.70;50.00
4910;DHT22;2470;49.868;8.660;2022-08-24T10:34:40;28.70;50.30
4910;DHT22;2470;49.868;8.660;2022-08-24T10:40:29;28.80;50.50
4910;DHT22;2470;49.868;8.660;2022-08-24T10:43:10;28.90;49.70
4910;DHT22;2470;49.868;8.660;2022-08-24T10:46:16;29.00;49.70
4910;DHT22;2470;49.868;8.660;2022-08-24T10:52:25;29.00;49.80
4910;DHT22;2470;49.868;8.660;2022-08-24T10:55:29;29.10;49.90
4910;DHT22;2470;49.868;8.660;2022-08-24T11:01:22;29.50;48.90
4910;DHT22;2470;49.868;8.660;2022-08-24T11:03:55;29.70;48.10
4910;DHT22;2470;49.868;8.660;2022-08-24T11:06:23;29.80;46.90
4910;DHT22;2470;49.868;8.660;2022-08-24T11:08:53;29.90;46.50
4910;DHT22;2470;49.868;8.660;2022-08-24T11:14:23;30.00;46.10
4910;DHT22;2470;49.868;8.660;2022-08-24T11:16:50;30.00;46.30
4910;DHT22;2470;49.868;8.660;2022-08-24T11:19:33;30.00;46.40
4910;DHT22;2470;49.868;8.660;2022-08-24T11:22:41;30.00;46.10
4910;DHT22;2470;49.868;8.660;2022-08-24T11:25:19;30.20;46.00
4910;DHT22;2470;49.868;8.660;2022-08-24T11:27:50;30.20;45.60
4910;DHT22;2470;49.868;8.660;2022-08-24T11:35:37;30.40;45.60
4910;DHT22;2470;49.868;8.660;2022-08-24T11:38:20;30.40;45.90
4910;DHT22;2470;49.868;8.660;2022-08-24T11:49:13;30.80;45.10
4910;DHT22;2470;49.868;8.660;2022-08-24T11:52:08;31.00;44.30
4910;DHT22;2470;49.868;8.660;2022-08-24T11:54:43;31.20;45.60
4910;DHT22;2470;49.868;8.660;2022-08-24T11:57:15;31.30;45.40
4910;DHT22;2470;49.868;8.660;2022-08-24T12:00:16;31.30;44.80
4910;DHT22;2470;49.868;8.660;2022-08-24T12:02:59;31.40;45.30
4910;DHT22;2470;49.868;8.660;2022-08-24T12:13:42;31.50;44.50
4910;DHT22;2470;49.868;8.660;2022-08-24T12:16:25;31.50;44.00
4910;DHT22;2470;49.868;8.660;2022-08-24T12:18:57;31.50;43.90
4910;DHT22;2470;49.868;8.660;2022-08-24T12:21:28;31.60;44.50
4910;DHT22;2470;49.868;8.660;2022-08-24T12:24:06;31.70;43.90
4910;DHT22;2470;49.868;8.660;2022-08-24T12:26:41;31.90;43.70
4910;DHT22;2470;49.868;8.660;2022-08-24T12:32:23;32.20;43.60
4910;DHT22;2470;49.868;8.660;2022-08-24T12:34:57;32.70;42.70
4910;DHT22;2470;49.868;8.660;2022-08-24T12:37:26;33.10;42.30
4910;DHT22;2470;49.868;8.660;2022-08-24T12:42:33;34.70;40.80
4910;DHT22;2470;49.868;8.660;2022-08-24T12:45:09;35.50;38.70
4910;DHT22;2470;49.868;8.660;2022-08-24T12:51:09;37.70;36.40
4910;DHT22;2470;49.868;8.660;2022-08-24T12:54:00;38.90;35.10
4910;DHT22;2470;49.868;8.660;2022-08-24T12:56:52;40.30;34.20
4910;DHT22;2470;49.868;8.660;2022-08-24T12:59:27;41.50;33.30
4910;DHT22;2470;49.868;8.660;2022-08-24T13:25:55;50.50;25.80
4910;DHT22;2470;49.868;8.660;2022-08-24T13:31:20;51.10;24.80
4910;DHT22;2470;49.868;8.660;2022-08-24T13:59:10;54.20;23.40
4910;DHT22;2470;49.868;8.660;2022-08-24T14:02:25;54.80;22.60
4910;DHT22;2470;49.868;8.660;2022-08-24T14:10:00;55.70;21.90
4910;DHT22;2470;49.868;8.660;2022-08-24T14:17:40;56.10;21.20
4910;DHT22;2470;49.868;8.660;2022-08-24T14:23:08;56.20;21.40
4910;DHT22;2470;49.868;8.660;2022-08-24T14:25:37;56.30;21.20
4910;DHT22;2470;49.868;8.660;2022-08-24T14:35:42;56.10;20.90
4910;DHT22;2470;49.868;8.660;2022-08-24T14:43:47;56.00;20.70
4910;DHT22;2470;49.868;8.660;2022-08-24T14:49:28;55.70;20.30
4910;DHT22;2470;49.868;8.660;2022-08-24T15:00:53;50.50;22.10
4910;DHT22;2470;49.868;8.660;2022-08-24T15:09:09;43.10;25.40
4910;DHT22;2470;49.868;8.660;2022-08-24T15:11:37;41.60;26.40
4910;DHT22;2470;49.868;8.660;2022-08-24T15:14:08;40.60;27.00
4910;DHT22;2470;49.868;8.660;2022-08-24T15:17:28;39.90;27.80
4910;DHT22;2470;49.868;8.660;2022-08-24T15:19:43;39.20;28.20
4910;DHT22;2470;49.868;8.660;2022-08-24T15:24:41;38.20;28.80
4910;DHT22;2470;49.868;8.660;2022-08-24T15:27:13;37.80;29.30
4910;DHT22;2470;49.868;8.660;2022-08-24T15:32:14;37.10;29.70
4910;DHT22;2470;49.868;8.660;2022-08-24T15:34:49;36.80;30.20
4910;DHT22;2470;49.868;8.660;2022-08-24T15:37:33;36.60;30.30
4910;DHT22;2470;49.868;8.660;2022-08-24T15:40:00;36.40;30.60
4910;DHT22;2470;49.868;8.660;2022-08-24T15:42:28;36.10;31.30
4910;DHT22;2470;49.868;8.660;2022-08-24T15:44:59;35.90;31.20
4910;DHT22;2470;49.868;8.660;2022-08-24T15:47:29;35.70;31.50
4910;DHT22;2470;49.868;8.660;2022-08-24T15:49:58;35.50;31.20
4910;DHT22;2470;49.868;8.660;2022-08-24T15:52:50;35.30;31.80
4910;DHT22;2470;49.868;8.660;2022-08-24T15:55:45;35.20;31.90
4910;DHT22;2470;49.868;8.660;2022-08-24T15:58:25;35.00;32.00
4910;DHT22;2470;49.868;8.660;2022-08-24T16:00:59;34.90;32.30
4910;DHT22;2470;49.868;8.660;2022-08-24T16:03:44;34.90;32.70
4910;DHT22;2470;49.868;8.660;2022-08-24T16:11:31;34.60;32.50
4910;DHT22;2470;49.868;8.660;2022-08-24T16:13:58;34.50;32.70
4910;DHT22;2470;49.868;8.660;2022-08-24T16:16:38;34.50;32.80
4910;DHT22;2470;49.868;8.660;2022-08-24T16:19:07;34.40;33.30
4910;DHT22;2470;49.868;8.660;2022-08-24T16:21:57;34.30;33.60
4910;DHT22;2470;49.868;8.660;2022-08-24T16:24:32;34.20;34.40
4910;DHT22;2470;49.868;8.660;2022-08-24T16:26:59;34.20;33.80
4910;DHT22;2470;49.868;8.660;2022-08-24T16:34:43;34.60;33.60
4910;DHT22;2470;49.868;8.660;2022-08-24T16:37:09;34.60;34.50
4910;DHT22;2470;49.868;8.660;2022-08-24T16:39:35;34.50;33.70
4910;DHT22;2470;49.868;8.660;2022-08-24T16:42:04;34.30;33.70
4910;DHT22;2470;49.868;8.660;2022-08-24T16:44:35;34.10;33.80
4910;DHT22;2470;49.868;8.660;2022-08-24T16:47:02;33.90;34.00
4910;DHT22;2470;49.868;8.660;2022-08-24T16:49:29;34.00;34.30
4910;DHT22;2470;49.868;8.660;2022-08-24T16:51:56;34.20;34.70
4910;DHT22;2470;49.868;8.660;2022-08-24T16:54:21;34.00;34.60
4910;DHT22;2470;49.868;8.660;2022-08-24T16:56:50;33.80;34.60
4910;DHT22;2470;49.868;8.660;2022-08-24T16:59:19;33.60;34.30
4910;DHT22;2470;49.868;8.660;2022-08-24T17:01:48;33.40;34.90
4910;DHT22;2470;49.868;8.660;2022-08-24T17:04:14;33.10;35.30
4910;DHT22;2470;49.868;8.660;2022-08-24T17:06:40;33.00;35.00
4910;DHT22;2470;49.868;8.660;2022-08-24T17:09:06;32.80;35.50
4910;DHT22;2470;49.868;8.660;2022-08-24T17:11:31;32.60;35.50
4910;DHT22;2470;49.868;8.660;2022-08-24T17:13:57;32.60;35.60
4910;DHT22;2470;49.868;8.660;2022-08-24T17:16:23;32.70;35.50
4910;DHT22;2470;49.868;8.660;2022-08-24T17:18:48;32.60;35.10
4910;DHT22;2470;49.868;8.660;2022-08-24T17:21:14;32.60;35.20
4910;DHT22;2470;49.868;8.660;2022-08-24T17:23:40;32.60;35.50
4910;DHT22;2470;49.868;8.660;2022-08-24T17:26:11;32.60;35.80
4910;DHT22;2470;49.868;8.660;2022-08-24T17:28:40;32.50;35.60
4910;DHT22;2470;49.868;8.660;2022-08-24T17:31:08;32.50;35.80
4910;DHT22;2470;49.868;8.660;2022-08-24T17:33:34;32.30;35.90
4910;DHT22;2470;49.868;8.660;2022-08-24T17:36:00;32.30;36.00
4910;DHT22;2470;49.868;8.660;2022-08-24T17:38:27;32.20;36.10
4910;DHT22;2470;49.868;8.660;2022-08-24T17:40:53;32.20;36.30
4910;DHT22;2470;49.868;8.660;2022-08-24T17:43:18;32.10;36.30
4910;DHT22;2470;49.868;8.660;2022-08-24T17:45:44;32.10;36.50
4910;DHT22;2470;49.868;8.660;2022-08-24T17:48:14;32.00;36.50
4910;DHT22;2470;49.868;8.660;2022-08-24T17:50:40;31.90;36.70
4910;DHT22;2470;49.868;8.660;2022-08-24T17:53:06;31.90;36.90
4910;DHT22;2470;49.868;8.660;2022-08-24T17:55:32;31.80;37.00
4910;DHT22;2470;49.868;8.660;2022-08-24T17:58:00;31.60;37.20
4910;DHT22;2470;49.868;8.660;2022-08-24T18:00:25;31.50;37.30
4910;DHT22;2470;49.868;8.660;2022-08-24T18:02:52;31.40;37.50
4910;DHT22;2470;49.868;8.660;2022-08-24T18:05:17;31.30;37.40
4910;DHT22;2470;49.868;8.660;2022-08-24T18:07:47;31.30;37.80
4910;DHT22;2470;49.868;8.660;2022-08-24T18:10:16;31.10;37.90
4910;DHT22;2470;49.868;8.660;2022-08-24T18:12:43;31.00;37.90
4910;DHT22;2470;49.868;8.660;2022-08-24T18:15:08;30.90;38.10
4910;DHT22;2470;49.868;8.660;2022-08-24T18:17:37;30.80;38.30
4910;DHT22;2470;49.868;8.660;2022-08-24T18:20:05;30.80;38.50
4910;DHT22;2470;49.868;8.660;2022-08-24T18:22:31;30.70;38.70
4910;DHT22;2470;49.868;8.660;2022-08-24T18:24:57;30.60;38.70
4910;DHT22;2470;49.868;8.660;2022-08-24T18:27:28;30.60;39.00
4910;DHT22;2470;49.868;8.660;2022-08-24T18:30:00;30.50;39.20
4910;DHT22;2470;49.868;8.660;2022-08-24T18:32:26;30.40;39.30
4910;DHT22;2470;49.868;8.660;2022-08-24T18:34:51;30.30;39.50
4910;DHT22;2470;49.868;8.660;2022-08-24T18:37:17;30.20;39.70
4910;DHT22;2470;49.868;8.660;2022-08-24T18:39:42;30.10;40.00
4910;DHT22;2470;49.868;8.660;2022-08-24T18:42:10;30.00;40.30
4910;DHT22;2470;49.868;8.660;2022-08-24T18:44:36;30.00;40.80
4910;DHT22;2470;49.868;8.660;2022-08-24T18:47:03;29.80;40.70
4910;DHT22;2470;49.868;8.660;2022-08-24T18:49:28;29.80;41.00
4910;DHT22;2470;49.868;8.660;2022-08-24T18:51:54;29.70;41.20
4910;DHT22;2470;49.868;8.660;2022-08-24T18:54:23;29.70;41.60
4910;DHT22;2470;49.868;8.660;2022-08-24T18:56:49;29.60;41.70
4910;DHT22;2470;49.868;8.660;2022-08-24T18:59:17;29.50;41.90
4910;DHT22;2470;49.868;8.660;2022-08-24T19:01:45;29.40;42.00
4910;DHT22;2470;49.868;8.660;2022-08-24T19:04:30;29.40;42.30
4910;DHT22;2470;49.868;8.660;2022-08-24T19:06:55;29.40;42.70
4910;DHT22;2470;49.868;8.660;2022-08-24T19:09:21;29.30;43.00
4910;DHT22;2470;49.868;8.660;2022-08-24T19:11:46;29.30;43.30
4910;DHT22;2470;49.868;8.660;2022-08-24T19:14:13;29.20;43.60
4910;DHT22;2470;49.868;8.660;2022-08-24T19:16:39;29.10;43.80
4910;DHT22;2470;49.868;8.660;2022-08-24T19:19:05;29.00;44.00
4910;DHT22;2470;49.868;8.660;2022-08-24T19:21:33;28.90;44.40
4910;DHT22;2470;49.868;8.660;2022-08-24T19:24:01;28.90;44.80
4910;DHT22;2470;49.868;8.660;2022-08-24T19:26:27;28.80;45.00
4910;DHT22;2470;49.868;8.660;2022-08-24T19:28:53;28.70;45.30
4910;DHT22;2470;49.868;8.660;2022-08-24T19:31:20;28.60;45.70
4910;DHT22;2470;49.868;8.660;2022-08-24T19:33:47;28.50;46.20
4910;DHT22;2470;49.868;8.660;2022-08-24T19:36:13;28.40;46.70
4910;DHT22;2470;49.868;8.660;2022-08-24T19:38:39;28.40;47.20
4910;DHT22;2470;49.868;8.660;2022-08-24T19:41:07;28.30;47.40
4910;DHT22;2470;49.868;8.660;2022-08-24T19:43:33;28.30;47.70